createdAt,value
2018-11-06T00:01:03.927Z,22.53
2018-11-06T00:03:38.283Z,23.20
2018-11-06T00:06:06.718Z,21.10
2018-11-06T00:08:35.115Z,20.40
2018-11-06T00:11:03.524Z,21.60
2018-11-06T00:13:31.929Z,22.47
2018-11-06T00:16:00.344Z,21.73
2018-11-06T00:18:28.770Z,20.20
2018-11-06T00:20:57.201Z,19.70
2018-11-06T00:23:25.659Z,20.73
2018-11-06T00:25:54.104Z,20.50
2018-11-06T00:28:22.529Z,20.43
2018-11-06T00:30:50.947Z,20.17
2018-11-06T00:33:19.319Z,20.93
2018-11-06T00:35:47.728Z,20.33
2018-11-06T00:38:16.169Z,20.67
2018-11-06T00:40:45.056Z,21.13
2018-11-06T00:43:13.491Z,19.57
2018-11-06T00:45:41.792Z,21.13
2018-11-06T00:48:10.114Z,21.37
2018-11-06T00:50:39.207Z,21.40
2018-11-06T00:53:07.644Z,22.07
2018-11-06T00:55:36.071Z,21.70
2018-11-06T00:58:04.505Z,19.03
2018-11-06T01:00:32.948Z,19.10
2018-11-06T01:03:01.374Z,19.67
2018-11-06T01:05:29.840Z,19.87
2018-11-06T01:07:58.287Z,19.53
2018-11-06T01:10:27.243Z,18.57
2018-11-06T01:12:57.810Z,17.17
2018-11-06T01:15:31.319Z,18.20
2018-11-06T01:18:01.554Z,19.40
2018-11-06T01:20:29.968Z,17.93
2018-11-06T01:22:58.448Z,17.50
2018-11-06T01:25:26.938Z,17.03
2018-11-06T01:27:55.296Z,16.80
2018-11-06T01:30:23.680Z,16.43
2018-11-06T01:32:52.066Z,17.47
2018-11-06T01:35:20.486Z,19.10
2018-11-06T01:37:48.878Z,18.00
2018-11-06T01:40:18.674Z,17.83
2018-11-06T01:42:47.542Z,16.47
2018-11-06T01:45:17.324Z,16.60
2018-11-06T01:47:45.798Z,16.17
2018-11-06T01:50:16.908Z,17.67
2018-11-06T01:52:46.243Z,16.90
2018-11-06T01:55:14.692Z,17.57
2018-11-06T01:57:43.132Z,18.60
2018-11-06T02:00:14.060Z,16.73
2018-11-06T02:02:42.517Z,17.97
2018-11-06T02:05:14.133Z,16.63
2018-11-06T02:07:44.047Z,17.57
2018-11-06T02:10:13.988Z,18.57
2018-11-06T02:12:43.336Z,18.33
2018-11-06T02:15:11.773Z,16.50
2018-11-06T02:17:41.504Z,17.10
2018-11-06T02:20:10.871Z,18.57
2018-11-06T02:22:40.427Z,17.53
2018-11-06T02:25:12.959Z,16.27
2018-11-06T02:27:41.370Z,16.70
2018-11-06T02:30:11.495Z,18.50
2018-11-06T02:32:40.350Z,17.93
2018-11-06T02:35:08.756Z,18.60
2018-11-06T02:37:37.754Z,18.80
2018-11-06T02:40:06.924Z,18.70
2018-11-06T02:42:35.336Z,16.47
2018-11-06T02:45:03.775Z,19.37
2018-11-06T02:47:32.160Z,17.70
2018-11-06T02:50:00.525Z,17.60
2018-11-06T02:52:28.906Z,19.23
2018-11-06T02:54:57.328Z,15.90
2018-11-06T02:57:25.732Z,16.63
2018-11-06T02:59:54.153Z,16.47
2018-11-06T03:02:22.619Z,15.37
2018-11-06T03:04:51.230Z,15.73
2018-11-06T03:07:20.539Z,16.83
2018-11-06T03:09:50.615Z,18.03
2018-11-06T03:12:19.016Z,15.77
2018-11-06T03:14:47.415Z,16.00
2018-11-06T03:17:15.828Z,15.50
2018-11-06T03:19:44.207Z,17.47
2018-11-06T03:22:12.771Z,15.40
2018-11-06T03:24:41.207Z,14.97
2018-11-06T03:27:09.749Z,15.87
2018-11-06T03:29:38.072Z,15.90
2018-11-06T03:32:06.649Z,15.67
2018-11-06T03:34:35.069Z,15.60
2018-11-06T03:37:03.593Z,15.10
2018-11-06T03:39:32.005Z,15.37
2018-11-06T03:42:00.520Z,14.60
2018-11-06T03:44:28.998Z,14.03
2018-11-06T03:46:57.421Z,14.93
2018-11-06T03:49:25.831Z,13.33
2018-11-06T03:51:54.193Z,14.63
2018-11-06T03:54:22.515Z,13.90
2018-11-06T03:56:50.948Z,14.27
2018-11-06T03:59:19.659Z,14.80
2018-11-06T04:01:48.694Z,15.57
2018-11-06T04:04:17.092Z,14.07
2018-11-06T04:06:45.543Z,14.77
2018-11-06T04:09:14.373Z,13.10
2018-11-06T04:11:42.823Z,14.17
2018-11-06T04:14:11.678Z,13.20
2018-11-06T04:16:40.251Z,13.93
2018-11-06T04:19:09.157Z,14.57
2018-11-06T04:21:38.794Z,17.20
2018-11-06T04:24:15.052Z,15.73
2018-11-06T04:26:43.541Z,14.73
2018-11-06T04:29:11.961Z,15.30
2018-11-06T04:31:40.771Z,13.80
2018-11-06T04:34:09.662Z,13.60
2018-11-06T04:36:38.089Z,12.93
2018-11-06T04:39:09.742Z,13.03
2018-11-06T04:41:38.136Z,13.10
2018-11-06T04:44:07.124Z,12.83
2018-11-06T04:46:35.765Z,15.27
2018-11-06T04:49:04.568Z,14.03
2018-11-06T04:51:33.019Z,13.00
2018-11-06T04:54:02.228Z,13.43
2018-11-06T04:56:31.305Z,14.20
2018-11-06T04:58:59.693Z,13.83
2018-11-06T05:01:28.298Z,15.93
2018-11-06T05:03:56.739Z,14.37
2018-11-06T05:06:25.151Z,14.73
2018-11-06T05:08:53.533Z,13.33
2018-11-06T05:11:21.935Z,14.23
2018-11-06T05:13:50.459Z,13.37
2018-11-06T05:16:19.272Z,13.40
2018-11-06T05:18:47.691Z,14.83
2018-11-06T05:21:16.288Z,13.90
2018-11-06T05:23:44.786Z,13.87
2018-11-06T05:26:13.944Z,13.30
2018-11-06T05:28:42.365Z,13.97
2018-11-06T05:31:10.755Z,12.93
2018-11-06T05:33:39.172Z,12.73
2018-11-06T05:36:07.645Z,14.10
2018-11-06T05:38:36.163Z,14.43
2018-11-06T05:41:06.382Z,12.97
2018-11-06T05:43:35.252Z,12.97
2018-11-06T05:46:03.673Z,13.87
2018-11-06T05:48:32.099Z,12.80
2018-11-06T05:51:00.507Z,12.30
2018-11-06T05:53:28.924Z,15.00
2018-11-06T05:56:00.088Z,14.07
2018-11-06T05:58:28.572Z,15.07
2018-11-06T06:00:56.955Z,14.27
2018-11-06T06:03:25.400Z,13.13
2018-11-06T06:05:54.096Z,14.63
2018-11-06T06:08:22.542Z,14.33
2018-11-06T06:10:50.981Z,15.23
2018-11-06T06:13:19.391Z,14.63
2018-11-06T06:15:47.827Z,14.77
2018-11-06T06:18:16.204Z,17.17
2018-11-06T06:20:44.650Z,14.97
2018-11-06T06:23:13.271Z,15.67
2018-11-06T06:25:41.675Z,15.57
2018-11-06T06:28:10.297Z,14.83
2018-11-06T06:30:38.728Z,16.50
2018-11-06T06:33:07.152Z,16.13
2018-11-06T06:35:35.529Z,15.93
2018-11-06T06:38:04.040Z,15.93
2018-11-06T06:40:32.519Z,16.80
2018-11-06T06:43:00.924Z,15.80
2018-11-06T06:45:29.455Z,15.20
2018-11-06T06:47:57.983Z,16.40
2018-11-06T06:50:26.462Z,16.67
2018-11-06T06:52:54.986Z,16.23
2018-11-06T06:55:23.431Z,18.27
2018-11-06T06:57:51.820Z,17.60
2018-11-06T07:00:21.447Z,15.73
2018-11-06T07:02:49.892Z,16.87
2018-11-06T07:05:20.044Z,15.47
2018-11-06T07:07:48.526Z,14.77
2018-11-06T07:10:18.164Z,18.70
2018-11-06T07:12:47.426Z,16.40
2018-11-06T07:15:17.098Z,15.47
2018-11-06T07:17:46.496Z,14.90
2018-11-06T07:20:16.220Z,18.73
2018-11-06T07:22:44.685Z,18.10
2018-11-06T07:25:13.685Z,17.87
2018-11-06T07:27:42.955Z,20.93
2018-11-06T07:30:14.667Z,21.47
2018-11-06T07:32:43.792Z,18.73
2018-11-06T07:35:12.959Z,18.07
2018-11-06T07:37:41.668Z,21.23
2018-11-06T07:40:11.923Z,18.30
2018-11-06T07:42:40.751Z,18.33
2018-11-06T07:45:11.491Z,19.73
2018-11-06T07:47:39.892Z,18.60
2018-11-06T07:50:09.258Z,17.97
2018-11-06T07:52:38.323Z,19.60
2018-11-06T07:55:08.503Z,19.83
2018-11-06T07:57:36.876Z,19.00
2018-11-06T08:00:08.120Z,19.70
2018-11-06T08:02:36.496Z,20.93
2018-11-06T08:05:05.433Z,17.83
2018-11-06T08:07:34.059Z,17.00
2018-11-06T08:10:02.527Z,17.27
2018-11-06T08:12:31.400Z,17.40
2018-11-06T08:14:59.806Z,16.63
2018-11-06T08:17:28.275Z,15.53
2018-11-06T08:19:56.688Z,16.63
2018-11-06T08:22:25.133Z,15.43
2018-11-06T08:24:53.491Z,17.27
2018-11-06T08:27:21.952Z,15.87
2018-11-06T08:29:50.433Z,16.57
2018-11-06T08:32:19.095Z,17.97
2018-11-06T08:34:48.015Z,17.00
2018-11-06T08:37:16.429Z,16.67
2018-11-06T08:39:45.097Z,16.70
2018-11-06T08:42:13.590Z,15.90
2018-11-06T08:44:41.995Z,16.20
2018-11-06T08:47:10.410Z,16.77
2018-11-06T08:49:38.796Z,17.27
2018-11-06T08:52:07.444Z,16.87
2018-11-06T08:54:35.960Z,17.03
2018-11-06T08:57:04.333Z,17.37
2018-11-06T08:59:32.755Z,16.67
2018-11-06T09:02:01.256Z,17.10
2018-11-06T09:04:29.827Z,15.63
2018-11-06T09:06:58.300Z,16.83
2018-11-06T09:09:26.747Z,15.60
2018-11-06T09:11:55.120Z,15.70
2018-11-06T09:14:23.608Z,14.13
2018-11-06T09:16:52.057Z,13.43
2018-11-06T09:19:20.399Z,14.43
2018-11-06T09:21:48.801Z,14.23
2018-11-06T09:24:17.226Z,16.30
2018-11-06T09:26:45.680Z,14.30
2018-11-06T09:29:14.985Z,14.93
2018-11-06T09:31:43.510Z,15.57
2018-11-06T09:34:12.677Z,13.27
2018-11-06T09:36:41.280Z,13.47
2018-11-06T09:39:10.664Z,14.27
2018-11-06T09:41:39.440Z,15.57
2018-11-06T09:44:07.996Z,14.10
2018-11-06T09:46:36.987Z,13.30
2018-11-06T09:49:05.483Z,13.83
2018-11-06T09:51:33.887Z,14.10
2018-11-06T09:54:02.364Z,15.73
2018-11-06T09:56:30.847Z,14.30
2018-11-06T09:58:59.216Z,14.37
2018-11-06T10:01:27.660Z,15.07
2018-11-06T10:03:56.074Z,15.70
2018-11-06T10:06:24.591Z,14.97
2018-11-06T10:08:53.528Z,15.07
2018-11-06T10:11:21.949Z,14.07
2018-11-06T10:13:50.303Z,14.17
2018-11-06T10:16:18.708Z,11.80
2018-11-06T10:18:47.073Z,12.37
2018-11-06T10:21:15.539Z,11.17
2018-11-06T10:23:44.028Z,11.40
2018-11-06T10:26:12.907Z,10.93
2018-11-06T10:28:41.355Z,10.70
2018-11-06T10:31:09.823Z,10.97
2018-11-06T10:33:38.242Z,10.70
2018-11-06T10:36:06.707Z,9.83
2018-11-06T10:38:35.156Z,9.63
2018-11-06T10:41:03.518Z,10.40
2018-11-06T10:43:31.880Z,10.47
2018-11-06T10:46:00.320Z,9.33
2018-11-06T10:48:28.748Z,9.67
2018-11-06T10:50:57.227Z,9.83
2018-11-06T10:53:25.669Z,10.33
2018-11-06T10:55:54.092Z,9.60
2018-11-06T10:58:22.588Z,10.70
2018-11-06T11:00:56.370Z,9.97
2018-11-06T11:03:33.085Z,10.53
2018-11-06T11:06:01.712Z,10.00
2018-11-06T11:08:30.200Z,9.40
2018-11-06T11:10:58.901Z,9.93
2018-11-06T11:13:27.441Z,10.67
2018-11-06T11:15:57.673Z,10.80
2018-11-06T11:18:26.090Z,10.53
2018-11-06T11:20:54.552Z,8.50
2018-11-06T11:23:22.982Z,9.23
2018-11-06T11:25:51.433Z,9.43
2018-11-06T11:28:19.843Z,9.83
2018-11-06T11:30:48.437Z,9.57
2018-11-06T11:33:16.889Z,9.57
2018-11-06T11:35:45.311Z,9.07
2018-11-06T11:38:13.816Z,9.87
2018-11-06T11:40:42.314Z,9.03
2018-11-06T11:43:10.772Z,9.93
2018-11-06T11:45:39.423Z,8.60
2018-11-06T11:48:07.806Z,9.50
2018-11-06T11:50:36.199Z,9.80
2018-11-06T11:53:07.716Z,8.47
2018-11-06T11:55:36.298Z,8.13
2018-11-06T11:58:04.741Z,8.30
2018-11-06T12:00:37.140Z,9.07
2018-11-06T12:03:06.651Z,9.17
2018-11-06T12:05:35.034Z,9.20
2018-11-06T12:08:03.484Z,8.77
2018-11-06T12:10:31.910Z,8.80
2018-11-06T12:13:00.326Z,9.43
2018-11-06T12:15:28.998Z,11.63
2018-11-06T12:17:57.425Z,10.47
2018-11-06T12:20:25.748Z,9.97
2018-11-06T12:22:54.687Z,9.70
2018-11-06T12:25:23.359Z,9.83
2018-11-06T12:27:51.427Z,9.73
2018-11-06T12:30:20.001Z,10.00
2018-11-06T12:32:48.388Z,9.43
2018-11-06T12:35:16.883Z,9.23
2018-11-06T12:37:45.274Z,9.10
2018-11-06T12:40:14.170Z,8.03
2018-11-06T12:42:43.326Z,9.87
2018-11-06T12:45:13.036Z,8.97
2018-11-06T12:47:42.024Z,9.03
2018-11-06T12:50:10.627Z,8.77
2018-11-06T12:52:39.500Z,9.53
2018-11-06T12:55:09.125Z,9.10
2018-11-06T12:57:37.692Z,9.43
2018-11-06T13:00:08.176Z,9.07
2018-11-06T13:02:36.548Z,9.77
2018-11-06T13:05:05.081Z,9.60
2018-11-06T13:07:33.463Z,9.40
2018-11-06T13:10:01.919Z,10.57
2018-11-06T13:12:30.340Z,10.97
2018-11-06T13:14:59.322Z,9.97
2018-11-06T13:17:27.260Z,10.27
2018-11-06T13:19:55.664Z,10.83
2018-11-06T13:22:23.972Z,10.37
2018-11-06T13:24:52.398Z,10.50
2018-11-06T13:27:21.355Z,11.10
2018-11-06T13:29:49.743Z,10.90
2018-11-06T13:32:18.247Z,11.77
2018-11-06T13:34:47.393Z,10.77
2018-11-06T13:37:15.879Z,10.80
2018-11-06T13:39:44.224Z,10.73
2018-11-06T13:42:14.654Z,10.13
2018-11-06T13:44:43.868Z,10.30
2018-11-06T13:47:12.037Z,11.13
2018-11-06T13:49:40.442Z,10.27
2018-11-06T13:52:08.849Z,10.27
2018-11-06T13:54:37.214Z,9.87
2018-11-06T13:57:05.875Z,10.20
2018-11-06T13:59:34.264Z,9.77
2018-11-06T14:02:02.936Z,10.47
2018-11-06T14:04:31.445Z,10.77
2018-11-06T14:06:59.942Z,10.43
2018-11-06T14:09:28.558Z,10.57
2018-11-06T14:11:56.996Z,9.77
2018-11-06T14:14:25.476Z,10.03
2018-11-06T14:16:53.918Z,10.40
2018-11-06T14:19:22.428Z,9.37
2018-11-06T14:21:50.921Z,10.00
2018-11-06T14:24:19.468Z,10.13
2018-11-06T14:26:48.040Z,10.13
2018-11-06T14:29:16.572Z,10.73
2018-11-06T14:31:45.102Z,10.67
2018-11-06T14:34:14.037Z,12.03
2018-11-06T14:36:42.604Z,11.37
2018-11-06T14:39:11.440Z,9.90
2018-11-06T14:41:39.886Z,10.53
2018-11-06T14:44:08.367Z,11.33
2018-11-06T14:46:36.772Z,11.03
2018-11-06T14:49:07.717Z,10.50
2018-11-06T14:51:36.345Z,10.90
2018-11-06T14:54:05.011Z,10.40
2018-11-06T14:56:33.468Z,10.27
2018-11-06T14:59:02.543Z,12.07
2018-11-06T15:01:30.936Z,11.83
2018-11-06T15:04:00.445Z,12.73
2018-11-06T15:06:29.022Z,11.87
2018-11-06T15:08:57.557Z,12.33
2018-11-06T15:11:25.992Z,13.77
2018-11-06T15:13:54.448Z,14.87
2018-11-06T15:16:22.871Z,14.10
2018-11-06T15:21:58.304Z,18.53
2018-11-06T15:24:49.222Z,15.37
2018-11-06T15:27:17.696Z,16.13
2018-11-06T15:29:46.128Z,15.13
2018-11-06T15:32:14.755Z,15.77
2018-11-06T15:34:43.991Z,17.17
2018-11-06T15:37:12.480Z,14.97
2018-11-06T15:39:41.286Z,13.90
2018-11-06T15:42:09.736Z,15.37
2018-11-06T15:44:38.156Z,15.47
2018-11-06T15:47:06.640Z,14.27
2018-11-06T15:49:35.076Z,15.50
2018-11-06T15:52:03.523Z,14.33
2018-11-06T15:54:32.081Z,15.23
2018-11-06T15:57:01.012Z,13.67
2018-11-06T15:59:29.565Z,16.00
2018-11-06T16:01:57.924Z,15.73
2018-11-06T16:04:26.483Z,16.17
2018-11-06T16:06:54.984Z,15.97
2018-11-06T16:09:24.324Z,27.20
2018-11-06T16:11:52.828Z,16.77
2018-11-06T16:14:21.432Z,14.33
2018-11-06T16:16:50.433Z,14.87
2018-11-06T16:19:21.157Z,15.40
2018-11-06T16:21:49.491Z,17.87
2018-11-06T16:24:18.616Z,15.03
2018-11-06T16:26:47.368Z,17.80
2018-11-06T16:29:16.535Z,16.03
2018-11-06T16:31:45.359Z,13.93
2018-11-06T16:34:13.805Z,16.67
2018-11-06T16:36:42.674Z,15.97
2018-11-06T16:39:12.644Z,15.60
2018-11-06T16:41:41.429Z,15.37
2018-11-06T16:44:09.872Z,17.47
2018-11-06T16:46:38.279Z,18.00
2018-11-06T16:49:06.924Z,15.93
2018-11-06T16:51:35.505Z,21.67
2018-11-06T16:54:04.025Z,24.47
2018-11-06T16:56:32.544Z,21.73
2018-11-06T16:59:00.974Z,30.17
2018-11-06T17:01:29.691Z,27.03
2018-11-06T17:03:58.309Z,32.53
2018-11-06T17:06:32.321Z,28.63
2018-11-06T17:09:00.656Z,30.30
2018-11-06T17:11:29.112Z,35.00
2018-11-06T17:13:57.579Z,44.47
2018-11-06T17:16:25.984Z,24.37
2018-11-06T17:18:54.479Z,23.17
2018-11-06T17:21:22.941Z,20.37
2018-11-06T17:23:51.395Z,20.27
2018-11-06T17:26:22.103Z,18.20
2018-11-06T17:29:05.247Z,19.30
2018-11-06T17:31:33.950Z,24.27
2018-11-06T17:34:02.433Z,27.37
2018-11-06T17:36:31.334Z,22.77
2018-11-06T17:39:00.208Z,21.03
2018-11-06T17:41:28.683Z,18.70
2018-11-06T17:43:57.135Z,17.80
2018-11-06T17:46:25.593Z,18.10
2018-11-06T17:49:00.070Z,20.40
2018-11-06T17:51:28.536Z,15.77
2018-11-06T17:53:56.905Z,15.67
2018-11-06T17:56:25.334Z,15.90
2018-11-06T17:58:53.768Z,15.33
2018-11-06T18:01:22.208Z,15.67
2018-11-06T18:03:50.937Z,17.30
2018-11-06T18:06:24.299Z,16.00
2018-11-06T18:08:52.687Z,15.80
2018-11-06T18:11:21.068Z,15.87
2018-11-06T18:13:49.524Z,15.97
2018-11-06T18:16:18.296Z,21.53
2018-11-06T18:18:46.787Z,28.77
2018-11-06T18:21:15.272Z,24.03
2018-11-06T18:23:43.699Z,21.80
2018-11-06T18:26:12.128Z,18.30
2018-11-06T18:28:40.536Z,19.73
2018-11-06T18:31:08.980Z,17.50
2018-11-06T18:33:37.431Z,18.67
2018-11-06T18:36:05.864Z,20.57
2018-11-06T18:38:34.287Z,20.33
2018-11-06T18:41:02.712Z,19.07
2018-11-06T18:43:37.907Z,20.20
2018-11-06T18:46:06.334Z,19.20
2018-11-06T18:48:34.797Z,23.23
2018-11-06T18:51:03.149Z,23.97
2018-11-06T18:53:31.676Z,22.67
2018-11-06T18:56:00.118Z,31.97
2018-11-06T18:58:31.161Z,26.30
2018-11-06T19:00:59.640Z,27.23
2018-11-06T19:03:28.862Z,24.97
2018-11-06T19:05:59.520Z,28.03
2018-11-06T19:08:27.980Z,24.67
2018-11-06T19:10:56.461Z,27.23
2018-11-06T19:13:24.917Z,26.33
2018-11-06T19:15:53.394Z,27.60
2018-11-06T19:18:22.037Z,27.10
2018-11-06T19:20:50.491Z,26.37
2018-11-06T19:23:18.899Z,24.60
2018-11-06T19:25:47.326Z,26.43
2018-11-06T19:28:22.263Z,26.23
2018-11-06T19:30:50.658Z,29.73
2018-11-06T19:33:19.020Z,26.83
2018-11-06T19:35:47.520Z,27.40
2018-11-06T19:38:16.188Z,28.00
2018-11-06T19:40:45.182Z,28.77
2018-11-06T19:43:13.660Z,31.40
2018-11-06T19:45:42.194Z,27.47
2018-11-06T19:48:10.663Z,27.40
2018-11-06T19:50:39.131Z,28.13
2018-11-06T19:53:07.662Z,27.57
2018-11-06T19:55:38.379Z,26.77
2018-11-06T19:58:06.819Z,27.17
2018-11-06T20:00:35.395Z,26.37
2018-11-06T20:03:04.005Z,28.33
2018-11-06T20:05:32.436Z,26.70
2018-11-06T20:08:00.872Z,25.30
2018-11-06T20:10:29.445Z,28.30
2018-11-06T20:12:57.920Z,27.33
2018-11-06T20:15:26.385Z,27.00
2018-11-06T20:17:54.876Z,26.43
2018-11-06T20:20:24.605Z,27.17
2018-11-06T20:22:53.078Z,23.27
2018-11-06T20:25:21.507Z,29.47
2018-11-06T20:27:52.197Z,28.33
2018-11-06T20:30:22.052Z,26.23
2018-11-06T20:33:13.242Z,25.83
2018-11-06T20:35:41.802Z,27.17
2018-11-06T20:38:10.216Z,27.67
2018-11-06T20:40:38.776Z,29.10
2018-11-06T20:43:07.438Z,27.70
2018-11-06T20:45:35.731Z,27.50
2018-11-06T20:48:04.556Z,29.37
2018-11-06T20:50:33.140Z,30.50
2018-11-06T20:53:02.091Z,32.27
2018-11-06T20:55:30.623Z,26.27
2018-11-06T20:57:59.154Z,31.70
2018-11-06T21:00:30.311Z,30.27
2018-11-06T21:03:01.116Z,27.03
2018-11-06T21:05:29.782Z,26.87
2018-11-06T21:07:58.304Z,28.27
2018-11-06T21:10:28.332Z,27.03
2018-11-06T21:12:56.853Z,28.83
2018-11-06T21:15:27.548Z,28.37
2018-11-06T21:17:56.078Z,26.00
2018-11-06T21:20:24.391Z,27.00
2018-11-06T21:22:52.756Z,28.83
2018-11-06T21:25:22.382Z,27.43
2018-11-06T21:27:50.679Z,27.50
2018-11-06T21:30:20.385Z,27.37
2018-11-06T21:32:50.040Z,31.60
2018-11-06T21:35:18.905Z,29.40
2018-11-06T21:37:47.588Z,27.97
2018-11-06T21:40:17.555Z,27.17
2018-11-06T21:42:46.712Z,25.07
2018-11-06T21:45:15.812Z,26.07
2018-11-06T21:47:45.147Z,26.60
2018-11-06T21:50:14.460Z,25.83
2018-11-06T21:52:44.194Z,25.97
2018-11-06T21:55:14.086Z,26.20
2018-11-06T21:57:42.591Z,24.70
2018-11-06T22:00:13.514Z,23.93
2018-11-06T22:02:42.263Z,23.00
2018-11-06T22:05:12.263Z,25.37
2018-11-06T22:07:41.239Z,23.83
2018-11-06T22:10:11.548Z,25.50
2018-11-06T22:12:40.854Z,30.03
2018-11-06T22:15:10.744Z,28.33
2018-11-06T22:17:39.511Z,25.40
2018-11-06T22:20:10.275Z,25.73
2018-11-06T22:22:40.429Z,25.80
2018-11-06T22:25:08.870Z,27.17
2018-11-06T22:27:37.602Z,27.37
2018-11-06T22:30:08.024Z,26.90
2018-11-06T22:32:36.521Z,26.80
2018-11-06T22:35:06.120Z,25.57
2018-11-06T22:37:34.602Z,26.20
2018-11-06T22:40:03.008Z,26.43
2018-11-06T22:42:31.424Z,27.93
2018-11-06T22:44:59.895Z,27.07
2018-11-06T22:47:28.608Z,27.23
2018-11-06T22:49:57.011Z,25.90
2018-11-06T22:52:26.403Z,27.00
2018-11-06T22:54:54.877Z,25.73
2018-11-06T22:57:23.267Z,25.80
2018-11-06T22:59:51.735Z,29.10
2018-11-06T23:02:20.752Z,28.67
2018-11-06T23:04:49.155Z,25.37
2018-11-06T23:07:23.036Z,25.57
2018-11-06T23:09:51.427Z,26.47
2018-11-06T23:12:20.427Z,26.30
2018-11-06T23:14:48.818Z,25.57
2018-11-06T23:17:17.534Z,25.30
2018-11-06T23:19:45.948Z,23.37
2018-11-06T23:22:14.371Z,27.30
2018-11-06T23:24:42.727Z,25.93
2018-11-06T23:27:11.184Z,27.27
2018-11-06T23:29:39.619Z,25.80
2018-11-06T23:32:08.020Z,25.33
2018-11-06T23:34:37.112Z,24.53
2018-11-06T23:37:05.571Z,24.33
2018-11-06T23:39:33.919Z,26.40
2018-11-06T23:42:02.389Z,25.70
2018-11-06T23:44:30.756Z,27.40
2018-11-06T23:46:59.176Z,26.87
2018-11-06T23:49:27.628Z,25.77
2018-11-06T23:51:56.090Z,26.13
2018-11-06T23:54:24.468Z,25.17
2018-11-06T23:56:52.912Z,24.47
2018-11-06T23:59:21.337Z,25.23
